Time;durP1;ratioP1;P1;durP2;ratioP2;P2;SDS_P1;SDS_P2;PMS_P1;PMS_P2;Temp;Humidity;BMP_temperature;BMP_pressure;BME280_temperature;BME280_humidity;BME280_pressure;Samples;Min_cycle;Max_cycle;Signal;HPM_P1;HPM_P2
2023/07/23 00:02:12;;;;;;;7.32;4.65;;;;;;;16.58;55.57;100508.22;7398910;19;20411;-67
2023/07/23 00:04:41;;;;;;;5.90;4.25;;;;;;;16.60;55.43;100503.69;7400986;19;20078;-67
2023/07/23 00:07:09;;;;;;;6.10;4.20;;;;;;;16.64;55.35;100499.94;7400959;19;20021;-67
2023/07/23 00:09:38;;;;;;;7.07;4.60;;;;;;;16.68;55.28;100498.88;7400858;19;20074;-67
2023/07/23 00:12:07;;;;;;;6.85;4.68;;;;;;;16.72;55.09;100494.25;7399883;19;20029;-68
2023/07/23 00:14:35;;;;;;;4.97;4.15;;;;;;;16.76;54.88;100487.88;7400728;19;20019;-68
2023/07/23 00:17:07;;;;;;;5.35;4.40;;;;;;;16.81;55.04;100493.81;7398099;19;20078;-68
2023/07/23 00:19:36;;;;;;;5.00;4.30;;;;;;;16.84;55.23;100488.34;7401012;19;20018;-68
2023/07/23 00:22:04;;;;;;;6.00;4.68;;;;;;;16.87;54.99;100482.88;7398286;19;20021;-67
2023/07/23 00:24:33;;;;;;;5.63;4.47;;;;;;;16.90;55.22;100474.75;7400266;19;20085;-68
2023/07/23 00:27:01;;;;;;;6.10;4.35;;;;;;;16.94;54.59;100475.50;7400205;19;20078;-67
2023/07/23 00:29:30;;;;;;;5.30;3.95;;;;;;;16.96;55.00;100470.97;7400201;19;20077;-68
2023/07/23 00:31:58;;;;;;;6.03;4.38;;;;;;;16.99;55.10;100469.97;7398532;19;20014;-67
2023/07/23 00:34:35;;;;;;;6.88;4.40;;;;;;;17.02;54.83;100469.78;7399661;19;20472;-68
2023/07/23 00:37:04;;;;;;;6.55;4.05;;;;;;;17.03;54.91;100461.75;7399710;19;20080;-68
2023/07/23 00:39:32;;;;;;;7.45;4.38;;;;;;;17.06;54.81;100463.38;7397365;19;20018;-68
2023/07/23 00:42:01;;;;;;;5.40;4.45;;;;;;;17.08;55.04;100458.88;7398826;19;20078;-67
2023/07/23 00:44:29;;;;;;;7.40;4.60;;;;;;;17.10;54.81;100462.31;7399719;19;20021;-67
2023/07/23 00:47:00;;;;;;;7.43;4.13;;;;;;;17.12;54.80;100463.06;7397199;19;20021;-67
2023/07/23 00:49:29;;;;;;;5.93;4.40;;;;;;;17.13;54.55;100455.97;7400013;19;20016;-67
2023/07/23 00:52:00;;;;;;;5.60;4.40;;;;;;;17.14;54.74;100455.88;7396678;19;20018;-66
2023/07/23 00:54:29;;;;;;;7.63;4.05;;;;;;;17.16;54.41;100448.72;7399769;19;20018;-68
2023/07/23 00:56:58;;;;;;;6.47;4.18;;;;;;;17.18;54.52;100451.28;7399501;19;20022;-67
2023/07/23 00:59:29;;;;;;;6.05;4.40;;;;;;;17.19;54.80;100447.69;7399033;19;20097;-67
2023/07/23 01:01:58;;;;;;;4.40;3.22;;;;;;;17.19;54.71;100437.09;7397695;19;20504;-67
2023/07/23 01:04:28;;;;;;;6.45;4.28;;;;;;;17.21;54.89;100441.38;7398138;19;20082;-66
2023/07/23 01:07:02;;;;;;;6.15;4.32;;;;;;;17.21;54.62;100435.19;7398588;19;20014;-67
2023/07/23 01:09:32;;;;;;;5.57;4.28;;;;;;;17.24;54.49;100437.69;7399213;19;20024;-68
2023/07/23 01:12:01;;;;;;;6.22;4.03;;;;;;;17.24;54.58;100437.69;7398479;19;20029;-67
2023/07/23 01:14:30;;;;;;;7.20;4.32;;;;;;;17.25;54.91;100424.34;7399430;19;20070;-67
2023/07/23 01:16:57;;;;;;;7.40;3.78;;;;;;;17.26;54.46;100436.66;7398264;19;20502;-67
2023/07/23 01:19:27;;;;;;;5.88;4.35;;;;;;;17.25;54.86;100427.00;7398178;19;20484;-67
2023/07/23 01:22:01;;;;;;;5.00;4.22;;;;;;;17.27;55.05;100429.56;7397352;19;20022;-68
2023/07/23 01:24:30;;;;;;;5.53;4.20;;;;;;;17.27;55.04;100432.22;7398830;19;20037;-67
2023/07/23 01:26:58;;;;;;;4.72;3.67;;;;;;;17.28;55.15;100425.97;7398362;19;20033;-67
2023/07/23 01:29:27;;;;;;;5.72;4.25;;;;;;;17.29;54.90;100424.16;7398202;19;20074;-67
2023/07/23 01:31:55;;;;;;;5.95;4.28;;;;;;;17.28;55.32;100423.31;7396736;19;20020;-66
2023/07/23 01:34:24;;;;;;;4.50;4.10;;;;;;;17.28;55.23;100423.31;7398024;19;20078;-67
2023/07/23 01:36:53;;;;;;;7.05;5.15;;;;;;;17.28;55.27;100425.97;7397937;19;20077;-68
2023/07/23 01:39:24;;;;;;;4.43;4.03;;;;;;;17.28;55.55;100414.53;7397869;19;20015;-68
2023/07/23 01:41:55;;;;;;;4.13;3.70;;;;;;;17.28;55.55;100409.22;7395325;19;20477;-68
2023/07/23 01:44:23;;;;;;;5.15;4.28;;;;;;;17.28;55.22;100411.88;7397440;19;20021;-68
2023/07/23 01:46:51;;;;;;;6.32;4.22;;;;;;;17.28;55.54;100411.88;7397568;19;20015;-68
2023/07/23 01:49:20;;;;;;;5.85;3.97;;;;;;;17.26;55.86;100410.16;7397518;19;20086;-68
2023/07/23 01:51:48;;;;;;;5.53;4.22;;;;;;;17.26;55.68;100411.94;7396656;19;20081;-68
2023/07/23 01:54:17;;;;;;;6.10;4.70;;;;;;;17.26;55.75;100417.25;7397042;19;20070;-67
2023/07/23 01:56:48;;;;;;;6.60;4.57;;;;;;;17.25;55.94;100415.56;7396898;19;20549;-67
2023/07/23 01:59:17;;;;;;;7.22;4.03;;;;;;;17.22;56.27;100403.28;7397662;19;20014;-67
2023/07/23 02:01:45;;;;;;;11.30;4.25;;;;;;;17.23;56.24;100406.81;7395972;19;20082;-67
2023/07/23 02:04:13;;;;;;;7.32;4.32;;;;;;;17.23;55.89;100412.13;7394898;19;20373;-67
2023/07/23 02:06:42;;;;;;;5.75;4.20;;;;;;;17.22;56.03;100413.06;7396938;19;20017;-68
2023/07/23 02:09:10;;;;;;;6.18;4.80;;;;;;;17.19;56.25;100427.34;7396877;19;20021;-68
2023/07/23 02:11:39;;;;;;;7.40;4.72;;;;;;;17.18;56.40;100449.47;7396190;19;20504;-68
2023/07/23 02:14:10;;;;;;;7.20;4.80;;;;;;;17.15;56.83;100452.31;7396731;19;20086;-68
2023/07/23 02:16:39;;;;;;;7.35;4.93;;;;;;;17.13;57.01;100463.94;7394323;19;20385;-68
2023/07/23 02:19:07;;;;;;;5.43;4.68;;;;;;;17.08;57.14;100462.34;7396615;19;20022;-67
2023/07/23 02:21:36;;;;;;;6.95;4.70;;;;;;;17.04;57.98;100471.41;7394498;19;20021;-67
2023/07/23 02:24:04;;;;;;;5.97;4.38;;;;;;;16.99;58.22;100472.63;7394787;19;20078;-67
2023/07/23 02:26:32;;;;;;;8.32;4.93;;;;;;;16.95;58.40;100479.88;7396038;19;20074;-67
2023/07/23 02:29:01;;;;;;;6.88;4.75;;;;;;;16.89;59.01;100488.09;7395922;19;20436;-67
2023/07/23 02:31:32;;;;;;;6.40;5.00;;;;;;;16.82;59.79;100489.34;7395435;19;20014;-67
2023/07/23 02:34:00;;;;;;;7.22;4.63;;;;;;;16.74;60.00;100489.75;7395748;19;20017;-68
2023/07/23 02:36:29;;;;;;;8.60;4.60;;;;;;;16.69;60.54;100483.84;7395670;19;20599;-69
2023/07/23 02:38:57;;;;;;;7.30;5.43;;;;;;;16.61;60.64;100482.44;7393846;19;20010;-67
2023/07/23 02:41:26;;;;;;;6.35;5.28;;;;;;;16.56;61.48;100479.16;7395102;19;20490;-68
2023/07/23 02:43:56;;;;;;;5.72;4.78;;;;;;;16.51;61.66;100475.06;7395382;19;20094;-68
2023/07/23 02:46:24;;;;;;;8.43;5.03;;;;;;;16.43;62.20;100471.00;7394054;19;20086;-68
2023/07/23 02:48:55;;;;;;;6.20;4.93;;;;;;;16.39;62.51;100473.84;7395305;19;20086;-67
2023/07/23 02:51:24;;;;;;;9.02;5.78;;;;;;;16.33;62.84;100476.81;7395723;19;20070;-68
2023/07/23 02:53:53;;;;;;;6.97;5.22;;;;;;;16.27;63.01;100484.13;7395370;19;20018;-68
2023/07/23 02:56:21;;;;;;;6.93;5.38;;;;;;;16.23;63.34;100493.16;7393662;19;20019;-68
2023/07/23 02:58:49;;;;;;;7.97;5.22;;;;;;;16.18;63.56;100489.03;7395347;19;20125;-68
2023/07/23 03:01:19;;;;;;;7.15;5.30;;;;;;;16.15;63.91;100491.81;7394998;19;20015;-66
2023/07/23 03:03:48;;;;;;;7.63;5.20;;;;;;;16.11;64.27;100494.63;7393403;19;20018;-67
2023/07/23 03:06:19;;;;;;;7.72;5.70;;;;;;;16.08;64.75;100507.16;7395236;19;20370;-68
2023/07/23 03:08:48;;;;;;;6.22;5.63;;;;;;;16.06;65.16;100509.88;7395503;19;20015;-67
2023/07/23 03:11:16;;;;;;;8.65;5.90;;;;;;;16.04;65.85;100518.81;7394733;19;20485;-67
2023/07/23 03:13:45;;;;;;;11.07;5.68;;;;;;;15.98;66.49;100514.69;7392740;19;20497;-67
2023/07/23 03:16:13;;;;;;;7.85;5.45;;;;;;;15.93;66.74;100514.88;7394562;19;20015;-67
2023/07/23 03:18:42;;;;;;;8.75;7.03;;;;;;;15.91;67.11;100508.81;7394910;19;20019;-67
2023/07/23 03:21:11;;;;;;;8.43;6.43;;;;;;;15.90;67.38;100508.91;7394897;19;20027;-67
2023/07/23 03:23:42;;;;;;;8.40;6.68;;;;;;;15.88;67.67;100505.47;7392379;19;20493;-67
2023/07/23 03:26:11;;;;;;;6.78;6.07;;;;;;;15.87;67.70;100504.63;7395003;19;20362;-67
2023/07/23 03:28:39;;;;;;;7.50;6.22;;;;;;;15.82;67.98;100501.31;7398349;19;20031;-68
2023/07/23 03:31:08;;;;;;;8.05;6.38;;;;;;;15.78;67.73;100500.59;7401928;19;20019;-68
2023/07/23 03:33:36;;;;;;;7.00;5.25;;;;;;;15.76;68.10;100498.94;7399079;19;20035;-67
2023/07/23 03:36:10;;;;;;;8.73;5.90;;;;;;;15.77;68.19;100508.56;7401995;19;20031;-68
2023/07/23 03:38:38;;;;;;;;;;;;;;;15.74;67.92;100499.00;7399732;19;20420;-67
2023/07/23 03:41:09;;;;;;;7.72;5.88;;;;;;;15.73;67.83;100509.66;7401423;19;20359;-67
2023/07/23 03:43:38;;;;;;;9.70;6.05;;;;;;;15.71;67.94;100507.09;7398859;19;20014;-67
2023/07/23 03:46:06;;;;;;;7.95;6.32;;;;;;;15.70;68.33;100497.44;7401123;19;20481;-67
2023/07/23 03:48:35;;;;;;;7.72;5.88;;;;;;;15.69;68.23;100508.94;7401438;19;20035;-67
2023/07/23 03:51:03;;;;;;;9.05;6.25;;;;;;;15.68;68.37;100509.88;7400910;19;20502;-67
2023/07/23 03:53:32;;;;;;;8.82;6.53;;;;;;;15.65;68.71;100504.72;7398511;19;20018;-68
2023/07/23 03:56:00;;;;;;;6.88;5.60;;;;;;;15.63;68.66;100501.28;7401396;19;20078;-67
2023/07/23 03:58:37;;;;;;;10.32;6.43;;;;;;;15.62;68.75;100507.53;7401001;19;20510;-67
2023/07/23 04:01:06;;;;;;;8.85;5.80;;;;;;;15.58;68.74;100503.28;7398865;19;20014;-66
2023/07/23 04:03:34;;;;;;;8.02;5.57;;;;;;;15.59;68.50;100507.66;7398461;19;20085;-68
2023/07/23 04:06:03;;;;;;;7.15;5.82;;;;;;;15.59;68.50;100502.38;7401006;19;20021;-67
2023/07/23 04:08:31;;;;;;;7.13;5.95;;;;;;;15.60;68.61;100504.94;7400794;19;20015;-67
2023/07/23 04:11:00;;;;;;;8.45;6.07;;;;;;;15.61;68.44;100497.88;7400415;19;20086;-68
2023/07/23 04:13:28;;;;;;;8.45;6.80;;;;;;;15.61;68.56;100498.72;7398036;19;20018;-67
2023/07/23 04:16:01;;;;;;;7.68;6.03;;;;;;;15.63;68.45;100503.94;7400667;19;20010;-67
2023/07/23 04:18:47;;;;;;;9.10;6.23;;;;;;;15.65;68.53;100499.44;7398473;19;20011;-66
2023/07/23 04:21:16;;;;;;;9.80;7.00;;;;;;;15.67;68.58;100497.59;7400820;19;20022;-66
2023/07/23 04:23:48;;;;;;;8.80;6.72;;;;;;;15.70;68.53;100499.25;7397693;19;20041;-66
2023/07/23 04:26:16;;;;;;;7.38;5.95;;;;;;;15.71;68.75;100498.28;7399981;19;20014;-67
2023/07/23 04:28:45;;;;;;;7.65;6.85;;;;;;;15.73;68.73;100491.16;7400210;19;20070;-67
2023/07/23 04:31:16;;;;;;;7.55;6.03;;;;;;;15.76;68.68;100485.72;7399628;19;20010;-67
2023/07/23 04:33:51;;;;;;;8.38;6.65;;;;;;;15.79;68.91;100489.06;7396807;19;20074;-67
2023/07/23 04:36:26;;;;;;;9.73;7.13;;;;;;;15.83;68.78;100486.31;7399712;19;20596;-67
2023/07/23 04:38:54;;;;;;;8.45;6.18;;;;;;;15.86;68.93;100486.16;7399006;19;20015;-68
2023/07/23 04:41:22;;;;;;;7.15;6.32;;;;;;;15.88;68.88;100479.84;7398482;19;20037;-69
2023/07/23 04:43:51;;;;;;;7.43;5.93;;;;;;;15.92;68.51;100476.16;7397806;19;20029;-68
2023/07/23 04:46:22;;;;;;;14.18;6.68;;;;;;;15.96;68.95;100479.47;7399711;19;20017;-67
2023/07/23 04:48:50;;;;;;;10.15;7.13;;;;;;;15.98;68.91;100472.34;7400021;19;20022;-68
2023/07/23 04:51:19;;;;;;;9.13;6.90;;;;;;;15.99;68.92;100476.72;7399410;19;20082;-67
2023/07/23 04:53:47;;;;;;;8.20;6.57;;;;;;;16.02;69.43;100479.19;7399418;19;20010;-67
2023/07/23 04:56:16;;;;;;;7.75;6.30;;;;;;;16.06;69.17;100479.91;7398953;19;20019;-67
2023/07/23 04:58:44;;;;;;;7.45;6.25;;;;;;;16.08;69.44;100478.88;7396609;19;20493;-67
2023/07/23 05:01:14;;;;;;;7.57;6.40;;;;;;;16.11;69.40;100478.75;7398788;19;20078;-66
2023/07/23 05:03:45;;;;;;;11.35;6.47;;;;;;;16.15;69.72;100478.59;7396491;19;20021;-67
2023/07/23 05:06:13;;;;;;;11.18;6.72;;;;;;;16.18;69.51;100470.53;7399104;19;20020;-68
2023/07/23 05:08:41;;;;;;;10.05;6.90;;;;;;;16.21;69.40;100475.66;7398994;19;20017;-68
2023/07/23 05:11:10;;;;;;;7.38;6.53;;;;;;;16.23;69.15;100471.16;7398265;19;20021;-68
2023/07/23 05:13:38;;;;;;;11.18;7.97;;;;;;;16.26;69.44;100473.63;7396158;19;20537;-68
2023/07/23 05:16:07;;;;;;;12.80;9.48;;;;;;;16.30;69.31;100475.19;7398622;19;20025;-68
2023/07/23 05:18:35;;;;;;;12.25;8.70;;;;;;;16.35;69.08;100475.84;7398213;19;20483;-66
2023/07/23 05:21:07;;;;;;;12.95;9.73;;;;;;;16.38;69.32;100480.97;7398108;19;20021;-67
2023/07/23 05:23:35;;;;;;;7.18;6.45;;;;;;;16.42;68.93;100479.88;7396279;19;20019;-67
2023/07/23 05:26:04;;;;;;;10.65;7.15;;;;;;;16.48;69.21;100483.13;7397922;19;20363;-67
2023/07/23 05:28:32;;;;;;;12.73;8.70;;;;;;;16.53;69.11;100481.09;7397960;19;20381;-67
2023/07/23 05:31:01;;;;;;;8.90;6.75;;;;;;;16.57;68.72;100480.03;7396233;19;20025;-67
2023/07/23 05:33:30;;;;;;;10.15;7.60;;;;;;;16.64;68.47;100485.88;7395525;19;20031;-67
2023/07/23 05:35:58;;;;;;;8.80;6.93;;;;;;;16.69;68.43;100478.53;7397855;19;20018;-66
2023/07/23 05:38:29;;;;;;;11.43;7.47;;;;;;;16.73;68.26;100475.66;7395910;19;20019;-66
2023/07/23 05:40:59;;;;;;;13.13;9.20;;;;;;;16.76;68.46;100478.13;7397359;19;20073;-68
2023/07/23 05:43:29;;;;;;;10.32;7.35;;;;;;;16.82;68.44;100481.41;7395495;19;20014;-67
2023/07/23 05:45:58;;;;;;;8.90;6.63;;;;;;;16.88;68.33;100487.25;7397202;19;20018;-67
2023/07/23 05:48:26;;;;;;;7.28;6.40;;;;;;;16.96;68.00;100486.88;7397384;19;20019;-67
2023/07/23 05:50:55;;;;;;;6.93;6.05;;;;;;;17.03;67.96;100477.66;7397534;19;20019;-66
2023/07/23 05:53:23;;;;;;;8.90;6.30;;;;;;;17.12;67.66;100480.75;7395347;19;20499;-66
2023/07/23 05:55:54;;;;;;;10.18;5.85;;;;;;;17.19;66.97;100480.34;7395500;19;20030;-66
2023/07/23 05:58:22;;;;;;;6.35;5.43;;;;;;;17.25;66.91;100469.41;7397735;19;20098;-67
2023/07/23 06:00:51;;;;;;;7.50;6.10;;;;;;;17.32;66.59;100466.44;7397175;19;20017;-67
2023/07/23 06:03:19;;;;;;;9.63;6.22;;;;;;;17.38;66.59;100466.94;7395408;19;20113;-66
2023/07/23 06:05:48;;;;;;;9.63;6.82;;;;;;;17.44;66.56;100471.06;7396648;19;20021;-67
2023/07/23 06:08:16;;;;;;;7.68;5.88;;;;;;;17.50;66.41;100464.56;7396658;19;20014;-68
2023/07/23 06:10:45;;;;;;;8.50;5.95;;;;;;;17.57;66.54;100474.75;7396247;19;20010;-67
2023/07/23 06:13:16;;;;;;;7.53;6.25;;;;;;;17.63;66.11;100465.59;7395483;19;20084;-67
2023/07/23 06:15:44;;;;;;;10.77;6.57;;;;;;;17.70;66.35;100466.09;7395252;19;20161;-68
2023/07/23 06:18:12;;;;;;;7.50;6.15;;;;;;;17.78;65.72;100463.03;7396793;19;20011;-67
2023/07/23 06:20:41;;;;;;;9.95;6.45;;;;;;;17.82;65.89;100462.78;7396601;19;20261;-67
2023/07/23 06:23:09;;;;;;;8.55;5.72;;;;;;;17.90;65.52;100467.63;7394852;19;20019;-67
2023/07/23 06:25:39;;;;;;;9.07;6.00;;;;;;;17.96;65.42;100461.16;7396471;19;20021;-68
2023/07/23 06:28:07;;;;;;;6.90;5.78;;;;;;;18.05;65.39;100456.16;7396394;19;20010;-68
2023/07/23 06:30:38;;;;;;;7.18;5.82;;;;;;;18.15;65.13;100451.19;7395731;19;20369;-68
2023/07/23 06:33:13;;;;;;;8.90;5.68;;;;;;;18.25;64.89;100448.84;7393738;19;20013;-68
2023/07/23 06:35:48;;;;;;;10.02;6.50;;;;;;;18.37;64.79;100457.91;7396543;19;20015;-68
2023/07/23 06:38:17;;;;;;;9.77;5.60;;;;;;;18.48;64.46;100454.63;7395927;19;20499;-67
2023/07/23 06:40:48;;;;;;;6.88;5.65;;;;;;;18.61;64.18;100460.03;7395556;19;20548;-68
2023/07/23 06:43:16;;;;;;;7.13;5.55;;;;;;;18.75;63.37;100461.88;7394318;19;20018;-67
2023/07/23 06:45:49;;;;;;;7.10;4.95;;;;;;;18.86;63.00;100454.94;7396275;19;20041;-67
2023/07/23 06:48:18;;;;;;;7.57;5.38;;;;;;;18.98;62.47;100453.38;7396298;19;20019;-67
2023/07/23 06:50:47;;;;;;;6.70;5.30;;;;;;;19.09;61.97;100449.19;7394071;19;20010;-67
2023/07/23 06:53:16;;;;;;;6.35;4.80;;;;;;;19.21;61.72;100454.59;7394696;19;20037;-68
2023/07/23 06:56:02;;;;;;;5.80;5.20;;;;;;;19.37;61.38;100450.97;7396006;19;20015;-68
2023/07/23 06:58:31;;;;;;;8.10;5.40;;;;;;;19.51;60.68;100439.44;7396024;19;20014;-67
2023/07/23 07:01:02;;;;;;;6.90;5.50;;;;;;;19.64;60.35;100444.84;7394209;19;20023;-68
2023/07/23 07:03:31;;;;;;;6.57;4.70;;;;;;;19.77;59.94;100447.56;7392545;19;20014;-68
2023/07/23 07:06:00;;;;;;;7.47;5.50;;;;;;;19.86;59.66;100444.31;7395343;19;20048;-68
2023/07/23 07:08:29;;;;;;;6.88;4.80;;;;;;;19.95;59.00;100440.19;7394636;19;20025;-70
2023/07/23 07:11:02;;;;;;;8.50;5.18;;;;;;;20.02;58.62;100438.84;7395307;19;20014;-68
2023/07/23 07:13:31;;;;;;;6.80;4.73;;;;;;;20.10;58.44;100435.66;7393154;19;20015;-67
2023/07/23 07:16:02;;;;;;;6.82;5.35;;;;;;;20.16;58.28;100436.09;7394569;19;20086;-67
2023/07/23 07:18:30;;;;;;;9.45;5.38;;;;;;;20.24;58.14;100435.59;7395187;19;20010;-67
2023/07/23 07:21:01;;;;;;;6.40;5.03;;;;;;;20.32;57.84;100441.28;7394706;19;20040;-68
2023/07/23 07:23:30;;;;;;;9.13;4.93;;;;;;;20.40;57.47;100431.91;7392443;19;20481;-68
2023/07/23 07:26:00;;;;;;;6.10;4.90;;;;;;;20.49;56.85;100433.94;7394733;19;20373;-67
2023/07/23 07:28:29;;;;;;;7.95;5.05;;;;;;;20.55;56.46;100436.19;7394507;19;20087;-68
2023/07/23 07:31:04;;;;;;;7.43;5.38;;;;;;;20.62;56.25;100433.94;7394136;19;20090;-68
2023/07/23 07:33:39;;;;;;;5.22;4.30;;;;;;;20.70;56.03;100433.41;7391544;19;20013;-66
2023/07/23 07:36:08;;;;;;;5.30;4.80;;;;;;;20.76;56.24;100423.22;7394399;19;20037;-67
2023/07/23 07:38:36;;;;;;;7.50;4.95;;;;;;;20.82;55.77;100425.44;7391657;19;20019;-67
2023/07/23 07:41:05;;;;;;;7.72;4.85;;;;;;;20.88;55.19;100425.97;7393927;19;20018;-67
2023/07/23 07:43:33;;;;;;;7.93;5.80;;;;;;;20.94;55.11;100426.41;7392030;19;20022;-68
2023/07/23 07:46:06;;;;;;;6.47;5.32;;;;;;;21.01;55.10;100423.31;7393766;19;20082;-66
2023/07/23 07:48:35;;;;;;;7.30;5.10;;;;;;;21.07;54.18;100420.22;7393581;19;20014;-67
2023/07/23 07:51:04;;;;;;;10.35;6.20;;;;;;;21.09;53.45;100415.59;7393734;19;20090;-69
2023/07/23 07:53:34;;;;;;;10.20;6.75;;;;;;;21.10;53.38;100415.47;7391215;19;20534;-69
2023/07/23 07:56:04;;;;;;;5.80;4.55;;;;;;;21.12;53.51;100418.06;7393733;19;20049;-68
2023/07/23 07:58:33;;;;;;;8.18;5.07;;;;;;;21.16;53.64;100419.53;7393448;19;20540;-69
2023/07/23 08:01:05;;;;;;;6.25;5.32;;;;;;;21.15;52.93;100418.69;7393530;19;20070;-69
2023/07/23 08:03:36;;;;;;;4.85;4.18;;;;;;;21.16;52.88;100409.72;7391439;19;20019;-68
2023/07/23 08:06:06;;;;;;;11.98;5.85;;;;;;;21.18;52.78;100411.41;7391604;19;20019;-69
2023/07/23 08:08:37;;;;;;;6.90;5.40;;;;;;;21.22;52.71;100411.09;7392847;19;20014;-68
2023/07/23 08:11:07;;;;;;;8.88;6.18;;;;;;;21.28;52.84;100408.00;7393615;19;20019;-69
2023/07/23 08:13:38;;;;;;;7.00;5.35;;;;;;;21.31;52.89;100410.41;7391834;19;20025;-67
2023/07/23 08:16:12;;;;;;;6.90;4.55;;;;;;;21.37;52.47;100401.13;7397941;19;20424;-67
2023/07/23 08:18:41;;;;;;;6.18;4.85;;;;;;;21.39;52.47;100401.03;7400608;19;20049;-68
2023/07/23 08:21:10;;;;;;;6.15;4.65;;;;;;;21.42;52.26;100406.13;7397228;19;20373;-67
2023/07/23 08:23:39;;;;;;;5.00;4.50;;;;;;;21.41;52.15;100399.09;7397216;19;20025;-67
2023/07/23 08:26:09;;;;;;;5.30;4.43;;;;;;;21.45;52.47;100400.56;7400089;19;20108;-67
2023/07/23 08:28:41;;;;;;;5.32;4.03;;;;;;;21.45;52.26;100395.25;7400459;19;20025;-69
2023/07/23 08:31:14;;;;;;;6.28;4.35;;;;;;;21.45;52.01;100396.06;7400394;19;20094;-68
2023/07/23 08:33:46;;;;;;;5.63;4.47;;;;;;;21.47;52.30;100396.81;7396869;19;20011;-68
2023/07/23 08:36:16;;;;;;;6.73;5.03;;;;;;;21.49;52.40;100396.72;7397694;19;20046;-68
2023/07/23 08:38:45;;;;;;;6.90;4.63;;;;;;;21.54;52.07;100393.72;7400528;19;20086;-69
2023/07/23 08:41:24;;;;;;;5.32;4.20;;;;;;;21.60;51.25;100385.28;7399673;19;20018;-67
2023/07/23 08:44:40;;;;;;;8.30;4.95;;;;;;;21.70;51.08;100388.09;7399054;19;20018;-68
2023/07/23 08:47:15;;;;;;;5.85;4.40;;;;;;;21.77;51.03;100384.88;7397440;19;20025;-68
2023/07/23 08:49:45;;;;;;;7.22;4.38;;;;;;;21.83;50.82;100380.06;7399248;19;20017;-69
2023/07/23 08:52:14;;;;;;;7.28;4.97;;;;;;;21.87;50.35;100377.03;7398152;19;20078;-67
2023/07/23 08:54:43;;;;;;;5.68;4.60;;;;;;;21.94;50.02;100372.09;7396996;19;20018;-67
2023/07/23 08:57:12;;;;;;;5.53;4.05;;;;;;;22.01;50.00;100369.78;7396589;19;20018;-67
2023/07/23 08:59:42;;;;;;;7.57;4.95;;;;;;;22.07;49.51;100366.66;7399140;19;20040;-65
2023/07/23 09:02:16;;;;;;;6.03;4.40;;;;;;;22.10;48.84;100371.75;7397521;19;20496;-68
2023/07/23 09:04:44;;;;;;;6.13;4.82;;;;;;;22.16;49.17;100370.44;7398054;19;20036;-68
2023/07/23 09:07:13;;;;;;;5.20;4.60;;;;;;;22.23;48.90;100369.00;7398408;19;20509;-68
2023/07/23 09:09:42;;;;;;;6.53;4.18;;;;;;;22.27;48.86;100365.13;7398463;19;20492;-68
2023/07/23 09:12:11;;;;;;;6.63;4.22;;;;;;;22.32;49.00;100364.75;7397891;19;20082;-66
2023/07/23 09:14:43;;;;;;;6.45;4.55;;;;;;;22.37;48.98;100363.47;7398828;19;20078;-67
2023/07/23 09:17:22;;;;;;;5.90;4.38;;;;;;;22.44;48.64;100358.50;7396525;19;20036;-68
2023/07/23 09:19:50;;;;;;;5.55;4.50;;;;;;;22.51;48.92;100362.41;7397889;19;20398;-67
2023/07/23 09:22:19;;;;;;;5.05;4.30;;;;;;;22.57;48.27;100361.06;7397481;19;20023;-67
2023/07/23 09:24:48;;;;;;;8.32;4.50;;;;;;;22.60;48.00;100363.50;7397328;19;20015;-66
2023/07/23 09:27:18;;;;;;;8.65;4.18;;;;;;;22.65;47.33;100365.81;7397652;19;20015;-67
2023/07/23 09:29:48;;;;;;;5.50;3.92;;;;;;;22.71;47.24;100351.94;7398978;19;20019;-68
2023/07/23 09:32:27;;;;;;;6.97;3.75;;;;;;;22.81;46.78;100360.97;7397501;19;20082;-67
2023/07/23 09:34:57;;;;;;;4.28;3.75;;;;;;;22.89;46.97;100358.50;7396024;19;20480;-67
2023/07/23 09:37:25;;;;;;;5.30;4.50;;;;;;;22.99;46.88;100357.75;7397981;19;20015;-66
2023/07/23 09:39:57;;;;;;;4.78;4.15;;;;;;;23.09;46.61;100348.88;7397833;19;20022;-67
2023/07/23 09:42:26;;;;;;;7.03;4.57;;;;;;;23.18;46.58;100344.66;7396319;19;20015;-67
2023/07/23 09:44:55;;;;;;;5.28;4.43;;;;;;;23.22;46.30;100338.06;7396171;19;20017;-68
2023/07/23 09:47:30;;;;;;;6.47;3.78;;;;;;;23.25;45.06;100343.19;7395164;19;20485;-68
2023/07/23 09:49:58;;;;;;;5.70;3.92;;;;;;;23.27;45.81;100338.53;7397061;19;20370;-69
2023/07/23 09:52:35;;;;;;;6.53;3.97;;;;;;;23.27;44.86;100327.00;7396459;19;20031;-70
2023/07/23 09:55:05;;;;;;;6.28;4.50;;;;;;;23.32;45.46;100330.13;7397855;19;20014;-69
2023/07/23 09:57:35;;;;;;;8.68;4.60;;;;;;;23.39;45.43;100325.13;7397075;19;20018;-70
2023/07/23 10:00:05;;;;;;;4.75;4.20;;;;;;;23.45;45.45;100321.09;7397092;19;20010;-70
2023/07/23 10:02:40;;;;;;;9.60;4.00;;;;;;;23.52;45.09;100311.56;7395997;19;20019;-68
2023/07/23 10:05:12;;;;;;;5.53;4.03;;;;;;;23.58;44.96;100308.38;7396000;19;20086;-70
2023/07/23 10:07:41;;;;;;;8.52;3.88;;;;;;;23.67;44.82;100298.72;7397163;19;20390;-68
2023/07/23 10:10:11;;;;;;;7.18;3.92;;;;;;;23.81;44.26;100297.53;7396872;19;20023;-68
2023/07/23 10:12:39;;;;;;;8.10;3.30;;;;;;;23.96;43.78;100292.75;7395770;19;20086;-68
2023/07/23 10:15:09;;;;;;;6.63;4.25;;;;;;;24.11;43.16;100287.91;7396589;19;20015;-69
2023/07/23 10:17:44;;;;;;;4.57;3.90;;;;;;;24.24;42.42;100277.84;7396647;19;20083;-68
2023/07/23 10:20:15;;;;;;;5.35;3.72;;;;;;;24.37;42.31;100272.25;7397106;19;20014;-70
2023/07/23 10:22:47;;;;;;;4.72;3.75;;;;;;;24.52;41.54;100283.47;7395525;19;20014;-70
2023/07/23 10:25:30;;;;;;;6.38;3.50;;;;;;;24.66;39.86;100274.22;7394718;19;20526;-67
2023/07/23 10:28:00;;;;;;;4.50;3.00;;;;;;;24.78;40.17;100266.91;7395587;19;20018;-68
2023/07/23 10:30:30;;;;;;;5.68;3.28;;;;;;;24.85;40.00;100266.22;7395869;19;20089;-68
2023/07/23 10:33:28;;;;;;;5.78;3.67;;;;;;;24.95;39.75;100257.34;7394883;19;20419;-68
2023/07/23 10:36:06;;;;;;;6.78;3.10;;;;;;;25.00;39.07;100247.06;7396011;19;20468;-68
2023/07/23 10:38:36;;;;;;;5.32;3.35;;;;;;;25.08;40.35;100247.19;7392443;19;20014;-69
2023/07/23 10:41:05;;;;;;;4.70;3.88;;;;;;;25.15;39.68;100226.84;7395467;19;20386;-68
2023/07/23 10:43:40;;;;;;;5.93;3.72;;;;;;;25.21;39.58;100225.44;7393231;19;20631;-68
2023/07/23 10:46:10;;;;;;;3.63;3.25;;;;;;;25.31;39.45;100217.38;7393692;19;20358;-68
2023/07/23 10:48:43;;;;;;;4.60;3.33;;;;;;;25.42;39.02;100221.81;7395250;19;20346;-68
2023/07/23 10:51:16;;;;;;;5.15;2.88;;;;;;;25.53;38.58;100227.03;7395027;19;20024;-68
2023/07/23 10:53:55;;;;;;;3.75;3.08;;;;;;;25.61;37.28;100211.03;7393303;19;20508;-68
2023/07/23 10:56:26;;;;;;;5.32;3.03;;;;;;;25.71;37.05;100215.53;7395059;19;20485;-68
2023/07/23 10:59:00;;;;;;;3.95;3.10;;;;;;;25.78;35.82;100198.69;7395444;19;20082;-67
2023/07/23 11:01:30;;;;;;;3.35;2.83;;;;;;;25.84;35.63;100197.25;7394932;19;20094;-69
2023/07/23 11:04:02;;;;;;;4.70;3.13;;;;;;;25.93;36.00;100191.03;7394915;19;20041;-67
2023/07/23 11:06:35;;;;;;;3.13;2.65;;;;;;;26.05;35.68;100185.47;7393599;19;20025;-67
2023/07/23 11:09:10;;;;;;;3.78;2.80;;;;;;;26.16;34.50;100194.19;7394868;19;20033;-67
2023/07/23 11:11:41;;;;;;;6.28;2.40;;;;;;;26.27;34.83;100190.44;7394621;19;20014;-67
2023/07/23 11:14:20;;;;;;;4.30;3.25;;;;;;;26.37;34.17;100192.25;7395101;19;20021;-67
2023/07/23 11:16:50;;;;;;;7.20;2.83;;;;;;;26.45;34.42;100171.69;7394381;19;20545;-67
2023/07/23 11:19:19;;;;;;;4.75;2.60;;;;;;;26.52;33.89;100176.47;7394531;19;20018;-68
2023/07/23 11:21:52;;;;;;;4.13;3.30;;;;;;;26.62;33.48;100174.56;7394035;19;20018;-68
2023/07/23 11:24:22;;;;;;;3.58;2.78;;;;;;;26.72;33.45;100153.81;7394162;19;20025;-68
2023/07/23 11:26:51;;;;;;;5.30;2.90;;;;;;;26.84;33.20;100157.13;7393806;19;20086;-67
2023/07/23 11:29:19;;;;;;;4.43;3.03;;;;;;;26.96;33.11;100150.53;7393888;19;20014;-67
2023/07/23 11:31:48;;;;;;;3.10;2.42;;;;;;;27.10;33.18;100162.59;7393588;19;20014;-67
2023/07/23 11:34:17;;;;;;;4.55;2.53;;;;;;;27.18;32.04;100150.22;7392777;19;20015;-67
2023/07/23 11:36:45;;;;;;;3.10;2.42;;;;;;;27.27;31.70;100162.72;7393759;19;20485;-68
2023/07/23 11:39:16;;;;;;;3.05;2.53;;;;;;;27.29;31.10;100171.50;7393990;19;20078;-68